Time;durP1;ratioP1;P1;durP2;ratioP2;P2;SDS_P1;SDS_P2;PMS_P1;PMS_P2;Temp;Humidity;BMP_temperature;BMP_pressure;BME280_temperature;BME280_humidity;BME280_pressure;Samples;Min_cycle;Max_cycle;Signal;HPM_P1;HPM_P2
2023/02/24 00:01:59;;;;;;;5.95;2.83;;;;;;;-6.90;57.63;99159.72;5072379;28;20392;-36
2023/02/24 00:04:31;;;;;;;11.18;4.90;;;;;;;-6.91;57.73;99158.84;5057737;28;20040;-36
2023/02/24 00:06:58;;;;;;;9.00;4.38;;;;;;;-6.87;57.67;99148.03;5080519;28;20411;-35
2023/02/24 00:09:26;;;;;;;7.47;3.63;;;;;;;-6.91;57.83;99148.75;5066271;28;20527;-36
2023/02/24 00:11:54;;;;;;;15.93;5.30;;;;;;;-6.98;57.69;99151.09;5062688;28;20040;-35
2023/02/24 00:14:20;;;;;;;9.95;4.47;;;;;;;-7.16;57.62;99122.81;5069157;28;20815;-36
2023/02/24 00:16:47;;;;;;;9.23;3.22;;;;;;;-7.05;57.59;99147.53;5057857;28;20061;-35
2023/02/24 00:19:15;;;;;;;11.75;3.55;;;;;;;-7.10;58.02;99141.50;5049940;28;20090;-35
2023/02/24 00:21:42;;;;;;;10.77;4.30;;;;;;;-7.16;57.93;99135.44;5052264;28;20166;-34
2023/02/24 00:24:09;;;;;;;7.32;3.40;;;;;;;-7.15;57.83;99132.09;5069649;28;20432;-35
2023/02/24 00:26:35;;;;;;;16.25;4.28;;;;;;;-7.61;57.93;99062.72;5053369;28;20102;-36
2023/02/24 00:29:03;;;;;;;10.32;4.10;;;;;;;-7.19;57.76;99128.66;5052588;28;20044;-35
2023/02/24 00:31:31;;;;;;;16.05;4.22;;;;;;;-7.39;57.72;99085.22;5071150;28;20822;-34
2023/02/24 00:33:58;;;;;;;10.15;4.88;;;;;;;-7.20;57.69;99109.25;5070812;28;20140;-37
2023/02/24 00:36:26;;;;;;;10.93;3.75;;;;;;;-7.22;57.63;99105.00;5071010;28;20415;-34
2023/02/24 00:38:57;;;;;;;10.27;4.88;;;;;;;-7.19;57.76;99110.97;5070504;28;20189;-36
2023/02/24 00:41:28;;;;;;;13.85;4.45;;;;;;;-7.15;57.53;99106.84;5085769;28;20123;-35
2023/02/24 00:44:05;;;;;;;10.80;4.18;;;;;;;-7.50;57.75;99043.69;5064140;28;20045;-35
2023/02/24 00:46:38;;;;;;;7.90;3.25;;;;;;;-7.13;57.91;99102.72;5084688;28;20112;-35
2023/02/24 00:49:09;;;;;;;14.60;5.47;;;;;;;-7.11;57.28;99089.28;5070692;28;20044;-35
2023/02/24 00:51:39;;;;;;;15.02;4.45;;;;;;;-7.09;57.52;99089.34;5069964;28;20040;-35
2023/02/24 00:54:05;;;;;;;8.13;3.10;;;;;;;-7.11;57.44;99080.84;5068105;28;20055;-34
2023/02/24 00:56:32;;;;;;;11.00;4.13;;;;;;;-7.34;57.36;99043.28;5070367;28;20040;-36
2023/02/24 00:58:58;;;;;;;5.82;2.97;;;;;;;-7.12;57.47;99074.97;5068910;28;20040;-36
2023/02/24 01:01:29;;;;;;;5.32;2.40;;;;;;;-7.05;57.25;99071.78;5067728;28;20056;-35
2023/02/24 01:03:56;;;;;;;7.88;2.83;;;;;;;-7.19;56.95;99045.31;5052114;28;20040;-35
2023/02/24 01:06:24;;;;;;;13.32;3.72;;;;;;;-7.04;56.65;99060.00;5085977;28;20055;-35
2023/02/24 01:08:52;;;;;;;14.10;4.88;;;;;;;-7.03;56.55;99065.09;5068675;28;20064;-36
2023/02/24 01:14:19;;;;;;;12.10;3.85;;;;;;;-7.11;56.81;99045.50;5069041;28;20044;-35
2023/02/24 01:16:49;;;;;;;10.00;2.75;;;;;;;-7.08;56.65;99046.44;5064170;28;20049;-35
2023/02/24 01:19:18;;;;;;;7.45;3.20;;;;;;;-7.06;56.48;99041.41;5037284;28;20041;-35
2023/02/24 01:21:45;;;;;;;10.60;4.03;;;;;;;-7.06;56.32;99032.16;5068965;28;20136;-35
2023/02/24 01:24:14;;;;;;;13.23;4.18;;;;;;;-7.00;56.29;99032.31;5069906;28;20048;-35
2023/02/24 01:26:41;;;;;;;7.07;3.23;;;;;;;-7.22;56.18;98994.72;5035638;28;20040;-36
2023/02/24 01:29:10;;;;;;;12.43;4.93;;;;;;;-7.06;55.73;99026.25;5068781;28;20313;-36
2023/02/24 01:31:37;;;;;;;6.83;2.83;;;;;;;-7.05;56.05;99027.97;5068469;28;20046;-35
2023/02/24 01:34:04;;;;;;;6.97;3.03;;;;;;;-7.07;55.92;99027.09;5067479;28;20132;-36
2023/02/24 01:36:32;;;;;;;8.65;3.22;;;;;;;-7.29;55.97;98986.16;5069440;28;20051;-36
2023/02/24 01:39:00;;;;;;;5.47;2.28;;;;;;;-7.12;55.96;99004.28;5035284;28;20040;-35
2023/02/24 01:41:26;;;;;;;11.45;3.63;;;;;;;-7.13;56.14;99007.59;5066978;28;20055;-35
2023/02/24 01:44:02;;;;;;;9.10;4.28;;;;;;;-7.09;55.47;99003.47;5068227;28;20074;-35
2023/02/24 01:46:33;;;;;;;5.18;2.58;;;;;;;-7.05;55.31;99003.56;5068506;28;20052;-35
2023/02/24 01:49:03;;;;;;;8.70;3.50;;;;;;;-7.08;55.34;99000.13;5069725;28;20040;-36
2023/02/24 01:51:35;;;;;;;10.18;3.42;;;;;;;-7.12;55.45;98983.22;5068169;28;20139;-36
2023/02/24 01:54:02;;;;;;;7.57;3.28;;;;;;;-7.15;55.55;98983.97;5033864;28;20040;-36
2023/02/24 01:56:30;;;;;;;8.95;2.63;;;;;;;-7.17;55.72;98983.06;5067813;28;20032;-35
2023/02/24 01:58:57;;;;;;;9.32;3.65;;;;;;;-7.22;55.69;98981.28;5051231;28;20040;-35
2023/02/24 02:01:23;;;;;;;7.57;2.45;;;;;;;-7.44;55.64;98947.94;5067395;28;20049;-34
2023/02/24 02:03:50;;;;;;;5.20;2.45;;;;;;;-7.25;55.82;98977.00;5067734;28;20127;-34
2023/02/24 02:06:16;;;;;;;5.45;2.78;;;;;;;-7.35;55.42;98959.91;5051131;28;20509;-34
2023/02/24 02:08:43;;;;;;;5.40;2.65;;;;;;;-7.33;55.51;98974.25;5068809;28;20048;-35
2023/02/24 02:11:12;;;;;;;6.25;2.20;;;;;;;-7.34;55.82;98959.97;5066783;28;20388;-35
2023/02/24 02:13:42;;;;;;;10.18;3.28;;;;;;;-7.33;55.52;98963.34;5083687;28;20044;-36
2023/02/24 02:16:44;;;;;;;5.93;2.53;;;;;;;-7.38;55.73;98963.19;5067795;28;20051;-34
2023/02/24 02:19:29;;;;;;;13.00;5.00;;;;;;;-7.41;55.84;98942.94;5060403;28;20045;-35
2023/02/24 02:22:08;;;;;;;8.95;3.38;;;;;;;-7.40;55.73;98944.66;5068808;28;20040;-35
2023/02/24 02:24:36;;;;;;;10.38;3.90;;;;;;;-7.38;55.54;98934.59;5068684;28;20071;-36
2023/02/24 02:27:10;;;;;;;8.27;3.55;;;;;;;-7.38;55.93;98937.94;5067645;28;20044;-34
2023/02/24 02:30:38;;;;;;;13.10;4.22;;;;;;;-7.35;55.61;98922.03;5067573;28;20036;-34
2023/02/24 02:33:29;;;;;;;11.93;3.97;;;;;;;-7.33;55.50;98928.81;5030344;28;20120;-35
2023/02/24 02:36:21;;;;;;;8.38;2.83;;;;;;;-7.32;55.23;98910.34;5063941;28;20163;-34
2023/02/24 02:39:17;;;;;;;5.38;3.10;;;;;;;-7.25;55.58;98905.44;5050014;28;20045;-35
2023/02/24 02:42:05;;;;;;;3.20;1.65;;;;;;;-7.18;55.88;98898.06;5035320;28;20526;-36
2023/02/24 02:44:38;;;;;;;8.43;2.80;;;;;;;-7.13;55.67;98910.78;5066822;28;20033;-35
2023/02/24 02:47:07;;;;;;;8.05;3.42;;;;;;;-7.07;55.42;98900.81;5067296;28;20056;-35
2023/02/24 02:49:47;;;;;;;5.60;2.63;;;;;;;-7.00;55.67;98890.88;5050456;28;20036;-35
2023/02/24 02:52:17;;;;;;;;;;;;;;;-6.96;55.36;98887.59;5067394;28;20048;-35
2023/02/24 02:54:48;;;;;;;5.65;2.45;;;;;;;-6.95;55.58;98893.50;5066513;28;19924;-35
2023/02/24 02:57:20;;;;;;;5.22;2.55;;;;;;;-6.90;55.34;98879.28;5068619;28;20094;-35
2023/02/24 02:59:55;;;;;;;3.22;1.92;;;;;;;-6.92;55.69;98858.22;5066579;28;20147;-35
2023/02/24 03:02:27;;;;;;;7.55;2.25;;;;;;;-6.85;55.19;98860.03;5063671;28;20136;-35
2023/02/24 03:04:57;;;;;;;6.18;2.60;;;;;;;-6.85;55.28;98857.50;5058766;28;20056;-35
2023/02/24 03:07:30;;;;;;;12.25;4.25;;;;;;;-6.96;55.23;98821.91;5033490;28;20047;-35
2023/02/24 03:10:00;;;;;;;8.73;3.35;;;;;;;-7.01;55.47;98799.91;5066987;28;20060;-36
2023/02/24 03:12:31;;;;;;;10.10;4.68;;;;;;;-6.79;55.50;98824.78;5067032;28;20048;-35
2023/02/24 03:15:01;;;;;;;9.10;3.08;;;;;;;-7.16;55.19;98757.50;5051214;28;20040;-35
2023/02/24 03:17:34;;;;;;;10.88;3.13;;;;;;;-6.75;55.76;98825.72;5069471;28;20040;-34
2023/02/24 03:20:16;;;;;;;6.28;2.33;;;;;;;-6.72;55.58;98824.09;5062764;28;20037;-35
2023/02/24 03:22:57;;;;;;;9.77;3.63;;;;;;;-6.72;55.40;98816.53;5046712;28;20102;-35
2023/02/24 03:25:27;;;;;;;11.93;3.72;;;;;;;-6.71;55.69;98808.13;5080321;28;20079;-36
2023/02/24 03:28:00;;;;;;;5.75;2.67;;;;;;;-6.92;55.76;98768.13;5050540;28;20047;-36
2023/02/24 03:30:56;;;;;;;10.38;3.78;;;;;;;-6.71;55.77;98784.53;5033753;28;20033;-36
2023/02/24 03:33:48;;;;;;;6.57;3.03;;;;;;;-6.73;55.96;98781.97;5065787;28;20130;-37
2023/02/24 03:36:15;;;;;;;3.28;1.65;;;;;;;-6.74;55.90;98775.19;5067109;28;20055;-34
2023/02/24 03:38:41;;;;;;;4.15;2.38;;;;;;;-6.72;56.04;98763.47;5058026;28;20118;-36
2023/02/24 03:41:09;;;;;;;7.82;2.97;;;;;;;-6.69;56.28;98770.22;5034114;28;20159;-35
2023/02/24 03:43:46;;;;;;;11.57;4.38;;;;;;;-6.69;56.07;98755.06;5069276;28;20044;-36
2023/02/24 03:46:14;;;;;;;6.43;2.55;;;;;;;-6.69;56.00;98755.06;5070641;28;20051;-36
2023/02/24 03:48:47;;;;;;;3.28;1.45;;;;;;;-6.66;55.94;98750.94;5064923;28;20625;-35
2023/02/24 03:51:17;;;;;;;6.35;3.10;;;;;;;-6.61;56.03;98740.91;5066777;28;20058;-37
2023/02/24 03:54:38;;;;;;;7.70;3.17;;;;;;;-6.78;56.40;98712.81;5066099;28;20044;-36
2023/02/24 03:57:11;;;;;;;3.33;1.70;;;;;;;-6.61;56.14;98736.72;5048730;28;20141;-35
2023/02/24 03:59:57;;;;;;;7.10;2.63;;;;;;;-6.60;56.05;98738.44;5098385;28;20040;-35
2023/02/24 04:02:27;;;;;;;4.35;2.35;;;;;;;-6.60;55.94;98728.31;5070298;28;20181;-35
2023/02/24 04:05:05;;;;;;;6.88;2.83;;;;;;;-6.61;56.12;98728.28;5100475;28;20071;-36
2023/02/24 04:07:51;;;;;;;5.65;2.55;;;;;;;-6.61;56.12;98708.06;5052014;28;20530;-36
2023/02/24 04:10:25;;;;;;;7.05;2.50;;;;;;;-6.68;56.42;98708.75;5100218;28;20041;-34
2023/02/24 04:12:57;;;;;;;8.80;3.95;;;;;;;-6.74;56.51;98704.44;5050270;28;20048;-36
2023/02/24 04:15:30;;;;;;;7.65;2.65;;;;;;;-6.69;56.36;98724.75;5083726;28;20036;-35
2023/02/24 04:18:00;;;;;;;8.25;3.97;;;;;;;-6.91;56.48;98666.25;5066101;28;20044;-36
2023/02/24 04:20:33;;;;;;;11.27;4.00;;;;;;;-6.66;56.50;98702.94;5034344;28;20052;-38
2023/02/24 04:23:07;;;;;;;5.40;2.85;;;;;;;-6.65;56.54;98699.59;5050389;28;20051;-36
2023/02/24 04:25:34;;;;;;;7.35;3.33;;;;;;;-6.66;56.31;98682.72;5070154;28;20859;-35
2023/02/24 04:28:02;;;;;;;8.93;2.92;;;;;;;-6.62;56.63;98689.53;5064465;28;20130;-35
2023/02/24 04:30:32;;;;;;;7.70;3.05;;;;;;;-6.59;56.64;98681.13;5066697;28;20042;-35
2023/02/24 04:32:58;;;;;;;7.78;3.05;;;;;;;-6.59;56.40;98678.59;5050146;28;20044;-36
2023/02/24 04:35:28;;;;;;;3.30;2.47;;;;;;;-6.57;56.49;98685.41;5070238;28;20131;-36
2023/02/24 04:37:55;;;;;;;6.05;2.55;;;;;;;-6.56;56.28;98684.56;5085419;28;20428;-34
2023/02/24 04:40:22;;;;;;;11.82;4.10;;;;;;;-6.49;56.56;98680.47;5070022;28;20051;-37
2023/02/24 04:42:50;;;;;;;6.78;2.60;;;;;;;-6.61;56.28;98647.41;5051314;28;20040;-36
2023/02/24 04:45:22;;;;;;;9.75;3.75;;;;;;;-6.40;56.38;98673.03;5050103;28;20044;-36
2023/02/24 04:47:51;;;;;;;7.97;2.65;;;;;;;-6.40;56.38;98669.66;5053788;28;20084;-37
2023/02/24 04:50:22;;;;;;;4.93;2.75;;;;;;;-6.34;56.10;98682.41;5071018;28;20051;-36
2023/02/24 04:53:12;;;;;;;9.50;4.10;;;;;;;-6.34;56.15;98668.09;5079766;28;20037;-35
2023/02/24 04:55:47;;;;;;;4.85;2.10;;;;;;;-6.29;55.97;98663.09;5048510;28;20044;-35
2023/02/24 04:58:18;;;;;;;6.57;3.55;;;;;;;-6.31;55.78;98652.09;5089098;28;20050;-36
2023/02/24 05:00:47;;;;;;;12.60;2.72;;;;;;;-6.30;55.92;98658.88;5089077;28;20126;-35
2023/02/24 05:03:16;;;;;;;5.68;2.78;;;;;;;-6.30;55.99;98649.59;5089843;28;20140;-36
2023/02/24 05:05:56;;;;;;;7.55;3.05;;;;;;;-6.24;55.90;98647.19;5089931;28;20040;-37
2023/02/24 05:08:24;;;;;;;6.55;3.33;;;;;;;-6.17;56.31;98643.03;5071435;28;20551;-36
2023/02/24 05:10:50;;;;;;;8.68;3.40;;;;;;;-6.12;55.89;98649.00;5069506;28;20500;-35
2023/02/24 05:13:19;;;;;;;6.78;3.53;;;;;;;-6.09;56.02;98631.38;5070619;28;20036;-36
2023/02/24 05:15:49;;;;;;;4.22;1.92;;;;;;;-6.07;55.74;98625.47;5070442;28;20538;-37
2023/02/24 05:18:25;;;;;;;8.35;3.80;;;;;;;-6.02;56.28;98618.00;5070308;28;20055;-35
2023/02/24 05:23:45;;;;;;;6.20;2.20;;;;;;;-6.00;55.42;98627.28;5069189;28;20048;-36
2023/02/24 05:26:16;;;;;;;7.72;3.47;;;;;;;-5.98;55.86;98616.34;5074383;28;20035;-35
2023/02/24 05:28:47;;;;;;;8.20;1.92;;;;;;;-6.11;55.61;98584.97;5065339;28;20052;-37
2023/02/24 05:31:17;;;;;;;8.80;3.97;;;;;;;-5.93;55.55;98617.25;5055353;28;20176;-34
2023/02/24 05:33:47;;;;;;;9.82;3.53;;;;;;;-5.92;55.98;98603.78;5072116;28;20435;-34
2023/02/24 05:36:16;;;;;;;;;;;;;;;-5.84;55.63;98603.00;5089270;28;20035;-36
2023/02/24 05:38:44;;;;;;;8.10;2.70;;;;;;;-5.87;55.45;98608.06;5107615;27;20410;-36
2023/02/24 05:41:17;;;;;;;11.98;4.00;;;;;;;-6.10;56.04;98563.91;5063928;28;20095;-35
2023/02/24 05:43:53;;;;;;;9.10;3.55;;;;;;;-5.85;55.83;98596.25;5071715;28;20040;-36
2023/02/24 05:46:26;;;;;;;4.88;2.70;;;;;;;-5.82;55.74;98597.97;5089272;28;20044;-36
2023/02/24 05:49:01;;;;;;;7.45;3.33;;;;;;;-5.85;55.38;98587.78;5068516;28;20648;-35
2023/02/24 05:51:36;;;;;;;8.00;3.38;;;;;;;-5.89;56.04;98589.47;5070559;28;20036;-36
2023/02/24 05:54:03;;;;;;;6.50;2.97;;;;;;;-5.92;55.96;98569.22;5066253;28;20048;-36
2023/02/24 05:56:38;;;;;;;8.38;3.33;;;;;;;-5.85;55.90;98583.59;5070260;28;20036;-35
2023/02/24 05:59:07;;;;;;;5.22;1.98;;;;;;;-5.83;56.44;98583.63;5078666;28;20580;-35
2023/02/24 06:01:40;;;;;;;;;;;;;;;-5.78;56.35;98582.00;5048831;28;20044;-35
2023/02/24 06:04:07;;;;;;;8.65;2.95;;;;;;;-5.82;56.55;98565.09;5089389;27;19917;-36
2023/02/24 06:06:35;;;;;;;8.15;3.20;;;;;;;-5.79;56.55;98568.50;5068797;28;20036;-36
2023/02/24 06:09:11;;;;;;;8.55;4.10;;;;;;;-5.81;57.33;98560.00;5051164;28;20052;-36
2023/02/24 06:11:41;;;;;;;10.82;4.75;;;;;;;-5.73;57.69;98550.00;5052031;28;20459;-38
2023/02/24 06:14:08;;;;;;;13.48;4.80;;;;;;;-5.57;57.26;98551.88;5084709;28;20130;-37
2023/02/24 06:16:36;;;;;;;4.80;2.33;;;;;;;-5.63;57.69;98550.13;5051615;28;20076;-36
2023/02/24 06:19:04;;;;;;;8.52;2.80;;;;;;;-5.64;57.98;98548.41;5067791;28;20039;-36
2023/02/24 06:21:39;;;;;;;9.30;2.97;;;;;;;-5.66;58.99;98547.56;5047506;28;20076;-35
2023/02/24 06:24:17;;;;;;;8.80;3.38;;;;;;;-5.72;59.12;98541.59;5089232;28;20046;-35
2023/02/24 06:26:44;;;;;;;11.13;3.80;;;;;;;-5.77;59.53;98555.88;5078531;28;20047;-36
2023/02/24 06:29:12;;;;;;;5.85;3.17;;;;;;;-5.80;60.59;98548.22;5087771;28;20147;-36
2023/02/24 06:31:38;;;;;;;4.45;2.53;;;;;;;-5.74;60.71;98538.16;5088381;28;20050;-36
2023/02/24 06:34:04;;;;;;;5.30;2.63;;;;;;;-5.72;61.61;98534.84;5068532;28;20130;-36
2023/02/24 06:36:30;;;;;;;8.48;3.60;;;;;;;-5.67;61.64;98527.28;5068813;28;20125;-36
2023/02/24 06:38:56;;;;;;;15.75;3.88;;;;;;;-5.79;62.62;98532.19;5068813;28;20040;-36
2023/02/24 06:41:22;;;;;;;13.35;4.70;;;;;;;-5.85;63.28;98517.81;5083726;28;20051;-36
2023/02/24 06:43:48;;;;;;;10.02;3.60;;;;;;;-5.91;63.92;98512.69;5068744;28;20043;-37
2023/02/24 06:46:15;;;;;;;10.13;3.80;;;;;;;-5.88;64.69;98514.44;5080581;28;20056;-36
2023/02/24 06:48:41;;;;;;;9.80;4.57;;;;;;;-5.76;65.50;98510.34;5048704;28;20043;-35
2023/02/24 06:51:13;;;;;;;8.35;4.05;;;;;;;-5.74;65.13;98522.97;5047185;28;20127;-36
2023/02/24 06:53:42;;;;;;;15.32;4.95;;;;;;;-5.78;65.77;98499.34;5066960;28;20048;-35
2023/02/24 06:56:16;;;;;;;11.07;4.88;;;;;;;-6.14;66.01;98428.13;5067830;28;20431;-36
2023/02/24 06:58:44;;;;;;;17.45;6.55;;;;;;;-5.68;66.18;98487.63;5083666;28;20043;-36
2023/02/24 07:01:15;;;;;;;13.48;5.75;;;;;;;-5.68;66.31;98442.06;5067798;28;20075;-36
2023/02/24 07:04:01;;;;;;;9.25;3.92;;;;;;;-5.57;66.57;98483.53;5083532;28;20478;-37
2023/02/24 07:06:33;;;;;;;17.45;5.72;;;;;;;-5.57;66.85;98476.78;5079037;28;20043;-36
2023/02/24 07:09:04;;;;;;;12.55;4.05;;;;;;;-5.56;66.76;98487.75;5046772;28;20139;-38
2023/02/24 07:11:30;;;;;;;10.38;4.13;;;;;;;-5.75;66.97;98450.41;5046958;28;20086;-35
2023/02/24 07:13:57;;;;;;;14.45;6.38;;;;;;;-5.58;67.32;98464.94;5075284;28;20548;-36
2023/02/24 07:16:27;;;;;;;10.05;3.63;;;;;;;-5.47;67.50;98475.19;5086544;28;20093;-37
2023/02/24 07:18:55;;;;;;;12.93;5.25;;;;;;;-5.49;67.85;98460.78;5088300;28;20565;-36
2023/02/24 07:21:22;;;;;;;7.07;4.05;;;;;;;-5.63;67.56;98418.50;5081487;28;20040;-36
2023/02/24 07:23:49;;;;;;;8.38;4.18;;;;;;;-5.41;67.51;98471.88;5065385;28;22050;-35
2023/02/24 07:26:17;;;;;;;8.90;3.65;;;;;;;-5.50;68.42;98449.00;5066842;28;20044;-35
2023/02/24 07:28:45;;;;;;;14.88;6.15;;;;;;;-5.46;68.85;98458.31;5068029;28;20124;-35
2023/02/24 07:31:13;;;;;;;12.20;4.68;;;;;;;-5.48;69.30;98455.75;5066774;28;20047;-36
2023/02/24 07:33:39;;;;;;;13.43;5.10;;;;;;;-5.66;69.38;98418.47;5066681;28;20094;-36
2023/02/24 07:36:09;;;;;;;14.95;5.47;;;;;;;-5.40;69.70;98449.09;5067662;28;20040;-35
2023/02/24 07:38:39;;;;;;;12.93;5.13;;;;;;;-5.30;69.76;98444.94;5068718;28;20040;-35
2023/02/24 07:41:06;;;;;;;8.10;3.70;;;;;;;-5.23;69.55;98445.00;5064785;28;20044;-36
2023/02/24 07:43:35;;;;;;;10.77;4.45;;;;;;;-5.25;69.63;98443.31;5072543;28;20138;-36
2023/02/24 07:46:18;;;;;;;19.73;6.65;;;;;;;-5.24;69.39;98439.94;5082255;28;20063;-37
2023/02/24 07:48:45;;;;;;;7.28;3.72;;;;;;;-5.17;69.60;98437.44;5063848;28;20136;-37
2023/02/24 07:51:13;;;;;;;9.13;3.95;;;;;;;-5.14;69.11;98426.50;5067874;28;20039;-36
2023/02/24 07:53:40;;;;;;;14.30;5.75;;;;;;;-5.07;69.92;98429.91;5072311;28;20040;-35
2023/02/24 07:56:12;;;;;;;14.75;6.07;;;;;;;-4.86;68.93;98425.84;5086168;28;20051;-37
2023/02/24 07:58:41;;;;;;;10.20;4.53;;;;;;;-4.74;68.89;98423.41;5053414;28;20431;-37
2023/02/24 08:01:08;;;;;;;19.67;6.20;;;;;;;-4.76;69.00;98429.28;5066321;28;20508;-37
2023/02/24 08:03:40;;;;;;;6.22;3.35;;;;;;;-4.85;68.88;98412.34;5071673;28;20071;-36
2023/02/24 08:06:14;;;;;;;14.23;5.32;;;;;;;-5.11;69.06;98386.00;5086054;28;20403;-36
2023/02/24 08:09:15;;;;;;;12.50;4.65;;;;;;;-4.79;69.68;98416.59;5051340;28;20534;-37
2023/02/24 08:11:44;;;;;;;18.05;6.53;;;;;;;-4.74;68.86;98402.25;5057474;28;20492;-36
2023/02/24 08:14:12;;;;;;;;;;;;;;;-4.63;68.92;98415.00;5072053;28;20072;-35
2023/02/24 08:16:50;;;;;;;10.13;5.13;;;;;;;-4.57;69.30;98408.28;5070947;28;19956;-39
2023/02/24 08:19:20;;;;;;;16.00;6.75;;;;;;;-4.62;68.91;98404.88;5068349;28;20036;-36
2023/02/24 08:21:49;;;;;;;12.95;4.93;;;;;;;-4.47;69.49;98394.81;5079220;28;20037;-36
2023/02/24 08:24:22;;;;;;;10.20;4.27;;;;;;;-4.43;68.96;98398.19;5037660;28;20059;-36
2023/02/24 08:27:03;;;;;;;5.90;3.50;;;;;;;-4.42;69.60;98407.50;5070808;28;20076;-37
2023/02/24 08:29:30;;;;;;;16.75;6.47;;;;;;;-4.59;69.27;98373.59;5079318;28;20054;-36
2023/02/24 08:31:59;;;;;;;13.63;4.90;;;;;;;-4.41;69.34;98383.84;5076892;28;20530;-37
2023/02/24 08:34:30;;;;;;;14.65;6.65;;;;;;;-4.29;70.06;98389.78;5074839;28;20044;-35
2023/02/24 08:36:56;;;;;;;20.48;7.50;;;;;;;-4.24;69.73;98377.16;5071002;28;20432;-37
2023/02/24 08:39:28;;;;;;;10.13;4.95;;;;;;;-4.13;69.37;98385.59;5090881;28;20039;-37
2023/02/24 08:41:58;;;;;;;19.98;6.15;;;;;;;-4.14;69.80;98391.56;5084288;28;20045;-37
2023/02/24 08:44:26;;;;;;;18.17;6.80;;;;;;;-4.05;69.85;98375.50;5068845;28;20071;-37
2023/02/24 08:46:55;;;;;;;17.92;6.70;;;;;;;-3.88;70.10;98378.94;5054524;28;20123;-37
2023/02/24 08:49:23;;;;;;;;;;;;;;;-3.79;69.74;98383.16;5069805;28;20568;-37
2023/02/24 08:51:51;;;;;;;12.85;5.75;;;;;;;-3.76;69.06;98375.53;5071318;28;20505;-36
2023/02/24 08:54:25;;;;;;;18.00;7.78;;;;;;;-3.74;69.24;98376.41;5071242;28;20125;-36
2023/02/24 08:57:06;;;;;;;20.33;6.78;;;;;;;-3.55;69.36;98375.56;5060408;28;20122;-37
2023/02/24 08:59:48;;;;;;;13.15;6.40;;;;;;;-3.55;68.66;98378.94;5059167;28;20048;-37
2023/02/24 09:04:53;;;;;;;17.02;6.60;;;;;;;-3.56;69.09;98367.09;5069030;28;20134;-38
2023/02/24 09:07:42;;;;;;;13.80;4.28;;;;;;;-3.56;69.24;98373.88;5067617;28;20044;-37
2023/02/24 09:10:16;;;;;;;14.63;5.13;;;;;;;-3.63;69.47;98367.09;5066110;28;20044;-36
2023/02/24 09:12:43;;;;;;;17.20;6.57;;;;;;;-3.77;69.30;98340.84;5067761;28;20051;-37
2023/02/24 09:15:10;;;;;;;17.40;7.35;;;;;;;-3.54;69.54;98362.88;5068964;28;20139;-38
2023/02/24 09:17:39;;;;;;;18.50;6.88;;;;;;;-3.45;69.42;98362.00;5082845;28;20040;-36
2023/02/24 09:23:06;;;;;;;20.70;7.63;;;;;;;-3.15;69.21;98356.06;5047770;28;20045;-38
2023/02/24 09:25:42;;;;;;;18.83;6.60;;;;;;;-3.16;68.94;98351.84;5047905;28;20098;-37
2023/02/24 09:28:15;;;;;;;15.10;6.30;;;;;;;-3.09;69.43;98353.53;5032275;28;20043;-36
2023/02/24 09:30:54;;;;;;;18.27;7.57;;;;;;;-3.05;68.87;98342.50;5070141;28;20050;-38
2023/02/24 09:33:40;;;;;;;8.07;3.58;;;;;;;-2.88;68.39;98345.00;5088731;28;20040;-39
2023/02/24 09:37:00;;;;;;;21.63;7.82;;;;;;;-2.88;68.73;98343.31;5088788;28;20134;-37
2023/02/24 09:44:51;;;;;;;17.85;7.45;;;;;;;-2.93;68.69;98327.19;5047379;28;20505;-38
2023/02/24 09:47:38;;;;;;;17.33;7.30;;;;;;;-2.76;68.81;98317.84;5048488;28;20068;-37
2023/02/24 09:50:44;;;;;;;14.25;6.65;;;;;;;-2.72;68.21;98326.31;5049647;28;20033;-36
2023/02/24 09:53:18;;;;;;;15.63;5.93;;;;;;;-2.70;68.13;98289.00;5074285;28;20464;-40
2023/02/24 09:56:14;;;;;;;16.88;7.35;;;;;;;-2.43;68.15;98309.22;5051980;28;20040;-37
2023/02/24 09:58:52;;;;;;;15.40;6.97;;;;;;;-2.44;67.50;98289.72;5068189;28;20430;-37
2023/02/24 10:01:41;;;;;;;18.65;7.22;;;;;;;-2.37;67.51;98301.56;5079649;28;20035;-37
2023/02/24 10:04:10;;;;;;;18.42;7.03;;;;;;;-2.19;67.83;98295.50;5088627;28;20079;-37
2023/02/24 10:07:05;;;;;;;17.38;7.38;;;;;;;-2.14;67.07;98283.59;5089534;28;20043;-36
2023/02/24 10:09:54;;;;;;;21.25;8.15;;;;;;;-2.08;67.11;98290.34;5088202;28;20532;-38
2023/02/24 10:12:30;;;;;;;14.15;5.90;;;;;;;-2.33;66.60;98287.13;5068423;28;20064;-38
2023/02/24 10:15:17;;;;;;;11.00;4.93;;;;;;;-2.40;66.93;98282.91;5067811;28;20495;-37
2023/02/24 10:18:25;;;;;;;17.25;7.43;;;;;;;-2.39;67.16;98269.34;5079242;28;20044;-37
2023/02/24 10:20:53;;;;;;;9.68;4.90;;;;;;;-2.54;66.57;98241.44;5037806;28;20439;-38
2023/02/24 10:23:44;;;;;;;14.77;7.13;;;;;;;-2.47;66.70;98232.94;5067350;28;20071;-38
2023/02/24 10:26:30;;;;;;;8.27;3.95;;;;;;;-2.25;66.88;98262.50;5068092;28;20079;-37
2023/02/24 10:29:00;;;;;;;15.63;6.35;;;;;;;-2.40;66.54;98254.91;5052894;28;20055;-38
2023/02/24 10:31:34;;;;;;;13.40;6.68;;;;;;;-2.25;67.06;98254.84;5075728;28;20035;-39
2023/02/24 10:34:04;;;;;;;16.98;5.28;;;;;;;-2.13;66.21;98245.41;5087706;28;20040;-38
2023/02/24 10:36:35;;;;;;;18.48;7.63;;;;;;;-2.31;66.67;98244.72;5087711;28;20063;-38
2023/02/24 10:39:24;;;;;;;11.40;4.50;;;;;;;-2.28;66.85;98237.03;5087528;28;20532;-37
2023/02/24 10:41:56;;;;;;;11.77;5.18;;;;;;;-2.29;67.08;98240.44;5075340;28;20064;-38
2023/02/24 10:44:34;;;;;;;13.27;6.25;;;;;;;-2.33;67.32;98219.25;5068662;28;20565;-37
2023/02/24 10:47:10;;;;;;;19.00;7.75;;;;;;;-2.15;67.04;98234.38;5079030;28;20044;-38
2023/02/24 10:49:55;;;;;;;18.75;7.82;;;;;;;-2.24;66.78;98193.72;5087418;28;20043;-37
2023/02/24 10:52:35;;;;;;;8.52;4.50;;;;;;;-2.03;66.67;98232.59;5080447;28;20086;-37
2023/02/24 10:55:26;;;;;;;17.10;7.45;;;;;;;-2.18;66.86;98223.38;5063351;28;20436;-37
2023/02/24 10:58:05;;;;;;;13.10;5.15;;;;;;;-1.92;66.71;98226.56;5063682;28;20043;-38
2023/02/24 11:03:37;;;;;;;15.50;6.25;;;;;;;-1.98;66.55;98215.59;5047330;28;20069;-37
2023/02/24 11:08:53;;;;;;;20.45;8.35;;;;;;;-1.87;66.39;98219.75;5048314;28;20086;-37
2023/02/24 11:11:24;;;;;;;14.85;7.22;;;;;;;-1.77;66.24;98217.97;5053896;28;20064;-38
2023/02/24 11:19:30;;;;;;;12.93;4.65;;;;;;;-1.67;66.03;98213.66;5066698;28;20156;-36
2023/02/24 11:21:56;;;;;;;16.17;7.45;;;;;;;-1.65;65.96;98217.00;5066492;28;20040;-36
2023/02/24 11:24:22;;;;;;;17.85;7.55;;;;;;;-1.62;65.89;98205.06;5076314;28;20515;-37
2023/02/24 11:26:48;;;;;;;7.78;4.45;;;;;;;-1.65;65.76;98201.72;5070073;28;20051;-36
2023/02/24 11:29:29;;;;;;;20.50;8.52;;;;;;;-1.56;65.82;98202.47;5087084;28;20048;-37
2023/02/24 11:32:08;;;;;;;20.23;7.57;;;;;;;-1.53;65.62;98196.50;5085063;28;20565;-37
2023/02/24 11:35:17;;;;;;;21.15;7.55;;;;;;;-1.30;65.35;98200.50;5087012;28;20155;-37
2023/02/24 11:38:34;;;;;;;18.65;8.07;;;;;;;-1.44;65.29;98191.31;5081782;28;20094;-38
2023/02/24 11:41:26;;;;;;;13.82;5.28;;;;;;;-1.33;65.15;98185.25;5042545;28;20052;-36
2023/02/24 11:44:18;;;;;;;9.73;4.57;;;;;;;-1.44;64.91;98181.13;5062342;28;20064;-36
2023/02/24 11:47:08;;;;;;;20.65;7.85;;;;;;;-1.66;64.89;98183.03;5027523;28;20076;-42
2023/02/24 11:49:46;;;;;;;16.08;7.00;;;;;;;-1.74;65.04;98178.03;5075028;28;20040;-38
2023/02/24 11:52:28;;;;;;;15.60;7.00;;;;;;;-1.79;65.39;98173.84;5075785;28;20067;-37
2023/02/24 11:54:56;;;;;;;11.55;5.65;;;;;;;-1.79;65.26;98184.88;5066810;28;20049;-37
2023/02/24 11:57:28;;;;;;;19.67;8.40;;;;;;;-1.85;65.47;98174.75;5074186;28;20059;-37
2023/02/24 12:00:12;;;;;;;15.43;6.07;;;;;;;-1.91;65.37;98174.81;5051511;28;20499;-36
2023/02/24 12:02:48;;;;;;;21.63;8.02;;;;;;;-1.88;65.60;98156.09;5065927;28;20586;-35
2023/02/24 12:05:26;;;;;;;22.52;8.93;;;;;;;-1.74;65.35;98160.22;5071877;28;20056;-35
2023/02/24 12:08:01;;;;;;;19.80;8.27;;;;;;;-1.78;65.04;98152.63;5060529;28;20040;-37
2023/02/24 12:10:30;;;;;;;15.85;6.70;;;;;;;-1.88;65.12;98156.94;5052353;28;20538;-37
2023/02/24 12:13:29;;;;;;;16.52;7.00;;;;;;;-1.95;65.15;98155.31;5071514;28;20052;-36
2023/02/24 12:16:03;;;;;;;16.92;7.35;;;;;;;-2.02;65.12;98142.66;5069976;28;20486;-36
2023/02/24 12:18:31;;;;;;;19.95;7.95;;;;;;;-1.92;65.01;98141.69;5082411;28;20040;-38
2023/02/24 12:21:04;;;;;;;11.07;4.95;;;;;;;-2.00;65.05;98141.78;5084376;28;20036;-37
2023/02/24 12:23:36;;;;;;;19.90;7.57;;;;;;;-2.15;65.56;98132.56;5090249;28;20039;-36
2023/02/24 12:26:27;;;;;;;12.75;5.97;;;;;;;-2.08;65.80;98135.91;5078990;28;20036;-36
2023/02/24 12:29:06;;;;;;;22.00;8.30;;;;;;;-2.11;65.71;98145.28;5052871;28;20139;-35